createdAt,value
2022-11-09T00:01:30.442Z,101182.56
2022-11-09T00:04:00.302Z,101179.09
2022-11-09T00:06:30.963Z,101180.97
2022-11-09T00:09:05.761Z,101170.44
2022-11-09T00:11:35.598Z,101175.81
2022-11-09T00:14:04.055Z,101182.47
2022-11-09T00:16:32.157Z,101175.22
2022-11-09T00:19:00.524Z,101181.59
2022-11-09T00:21:29.948Z,101178.41
2022-11-09T00:23:58.691Z,101174.06
2022-11-09T00:26:26.992Z,101176.81
2022-11-09T00:28:55.265Z,101174.13
2022-11-09T00:31:25.118Z,101177.34
2022-11-09T00:33:54.551Z,101172.75
2022-11-09T00:36:24.135Z,101168.09
2022-11-09T00:38:55.492Z,101174.25
2022-11-09T00:41:24.254Z,101173.75
2022-11-09T00:43:52.726Z,101166.00
2022-11-09T00:46:22.098Z,101166.28
2022-11-09T00:48:50.537Z,101170.00
2022-11-09T00:51:19.112Z,101166.00
2022-11-09T00:53:48.476Z,101166.47
2022-11-09T00:56:18.160Z,101172.94
2022-11-09T00:58:46.306Z,101173.47
2022-11-09T01:01:16.484Z,101169.59
2022-11-09T01:03:46.081Z,101166.91
2022-11-09T01:06:17.149Z,101169.28
2022-11-09T01:08:45.929Z,101173.34
2022-11-09T01:11:14.466Z,101173.88
2022-11-09T01:13:43.958Z,101169.28
2022-11-09T01:16:14.884Z,101165.81
2022-11-09T01:18:43.749Z,101164.72
2022-11-09T01:21:14.365Z,101171.69
2022-11-09T01:23:43.970Z,101174.38
2022-11-09T01:26:14.087Z,101166.91
2022-11-09T01:28:44.107Z,101172.28
2022-11-09T01:31:14.654Z,101168.50
2022-11-09T01:33:42.995Z,101172.28
2022-11-09T01:36:12.878Z,101166.59
2022-11-09T01:38:41.519Z,101170.06
2022-11-09T01:41:13.358Z,101171.50
2022-11-09T01:43:41.517Z,101171.69
2022-11-09T01:46:20.894Z,101171.19
2022-11-09T01:48:53.728Z,101168.28
2022-11-09T01:51:26.600Z,101167.50
2022-11-09T01:53:58.799Z,101172.75
2022-11-09T01:56:29.231Z,101167.81
2022-11-09T01:59:02.114Z,101172.69
2022-11-09T02:01:32.661Z,101178.06
2022-11-09T02:04:06.497Z,101171.56
2022-11-09T02:06:35.241Z,101175.56
2022-11-09T02:09:11.579Z,101177.78
2022-11-09T02:11:39.866Z,101169.41
2022-11-09T02:14:09.019Z,101157.25
2022-11-09T02:16:38.933Z,101176.34
2022-11-09T02:19:06.990Z,101167.81
2022-11-09T02:21:36.607Z,101175.88
2022-11-09T02:24:04.827Z,101174.47
2022-11-09T02:26:37.664Z,101169.41
2022-11-09T02:29:09.467Z,101170.50
2022-11-09T02:31:42.879Z,101173.66
2022-11-09T02:34:14.072Z,101171.09
2022-11-09T02:36:44.648Z,101175.38
2022-11-09T02:39:15.671Z,101177.53
2022-11-09T02:41:47.841Z,101173.28
2022-11-09T02:44:17.797Z,101165.81
2022-11-09T02:46:45.953Z,101170.47
2022-11-09T02:49:14.023Z,101169.09
2022-11-09T02:51:43.829Z,101175.44
2022-11-09T02:54:11.983Z,101168.41
2022-11-09T02:56:40.444Z,101174.84
2022-11-09T02:59:09.131Z,101168.09
2022-11-09T03:01:37.301Z,101171.69
2022-11-09T03:04:05.571Z,101179.25
2022-11-09T03:06:36.576Z,101179.44
2022-11-09T03:09:07.891Z,101175.09
2022-11-09T03:11:35.933Z,101173.47
2022-11-09T03:14:04.058Z,101179.63
2022-11-09T03:16:32.446Z,101167.63
2022-11-09T03:19:00.929Z,101176.56
2022-11-09T03:21:30.141Z,101173.94
2022-11-09T03:23:58.250Z,101176.28
2022-11-09T03:26:27.847Z,101170.91
2022-11-09T03:28:55.994Z,101173.47
2022-11-09T03:31:24.130Z,101177.66
2022-11-09T03:33:52.171Z,101174.66
2022-11-09T03:36:20.212Z,101177.25
2022-11-09T03:38:48.438Z,101175.75
2022-11-09T03:41:16.562Z,101173.34
2022-11-09T03:43:46.010Z,101171.19
2022-11-09T03:46:14.176Z,101167.81
2022-11-09T03:48:42.728Z,101169.88
2022-11-09T03:51:11.652Z,101169.88
2022-11-09T03:53:40.614Z,101165.81
2022-11-09T03:56:09.666Z,101171.38
2022-11-09T03:58:38.255Z,101175.44
2022-11-09T04:01:07.961Z,101169.47
2022-11-09T04:03:36.103Z,101171.38
2022-11-09T04:06:04.615Z,101167.31
2022-11-09T04:08:32.710Z,101178.06
2022-11-09T04:11:00.797Z,101172.88
2022-11-09T04:13:28.948Z,101162.19
2022-11-09T04:15:57.096Z,101175.63
2022-11-09T04:18:26.562Z,101172.41
2022-11-09T04:20:54.619Z,101166.41
2022-11-09T04:23:22.990Z,101174.06
2022-11-09T04:25:51.136Z,101174.34
2022-11-09T04:28:19.495Z,101172.69
2022-11-09T04:30:47.825Z,101177.03
2022-11-09T04:33:15.958Z,101181.53
2022-11-09T04:35:45.446Z,101181.22
2022-11-09T04:38:15.204Z,101174.22
2022-11-09T04:40:43.396Z,101175.53
2022-11-09T04:43:14.271Z,101179.25
2022-11-09T04:45:42.690Z,101182.69
2022-11-09T04:48:12.851Z,101181.50
2022-11-09T04:50:41.179Z,101184.38
2022-11-09T04:53:13.193Z,101187.56
2022-11-09T04:55:41.823Z,101185.38
2022-11-09T04:58:10.555Z,101189.75
2022-11-09T05:00:39.117Z,101190.25
2022-11-09T05:03:08.137Z,101194.53
2022-11-09T05:05:37.380Z,101194.56
2022-11-09T05:08:07.234Z,101186.41
2022-11-09T05:10:37.421Z,101198.56
2022-11-09T05:13:07.335Z,101198.34
2022-11-09T05:15:36.332Z,101206.19
2022-11-09T05:18:05.086Z,101211.69
2022-11-09T05:20:33.220Z,101202.34
2022-11-09T05:23:19.901Z,101224.03
2022-11-09T05:25:49.852Z,101219.66
2022-11-09T05:28:19.184Z,101223.94
2022-11-09T05:30:47.242Z,101223.16
2022-11-09T05:33:17.276Z,101226.28
2022-11-09T05:35:45.612Z,101227.06
2022-11-09T05:38:13.677Z,101234.34
2022-11-09T05:40:42.046Z,101235.84
2022-11-09T05:43:11.530Z,101240.41
2022-11-09T05:45:43.879Z,101242.59
2022-11-09T05:48:12.904Z,101245.88
2022-11-09T05:50:42.727Z,101248.19
2022-11-09T05:53:12.153Z,101246.31
2022-11-09T05:55:41.654Z,101251.09
2022-11-09T05:58:11.739Z,101260.34
2022-11-09T06:00:39.986Z,101261.94
2022-11-09T06:03:09.641Z,101269.00
2022-11-09T06:05:39.489Z,101265.31
2022-11-09T06:08:09.966Z,101270.09
2022-11-09T06:10:38.241Z,101269.81
2022-11-09T06:13:06.926Z,101274.88
2022-11-09T06:15:36.539Z,101273.31
2022-11-09T06:18:04.760Z,101275.72
2022-11-09T06:20:33.335Z,101269.94
2022-11-09T06:23:04.347Z,101267.44
2022-11-09T06:25:33.291Z,101274.34
2022-11-09T06:28:02.236Z,101274.13
2022-11-09T06:30:30.479Z,101276.13
2022-11-09T06:33:03.728Z,101278.41
2022-11-09T06:35:33.400Z,101281.19
2022-11-09T06:38:02.474Z,101279.50
2022-11-09T06:40:31.674Z,101285.22
2022-11-09T06:43:00.383Z,101288.28
2022-11-09T06:45:30.055Z,101286.91
2022-11-09T06:47:59.059Z,101291.88
2022-11-09T06:50:30.847Z,101291.47
2022-11-09T06:52:59.944Z,101293.16
2022-11-09T06:55:29.802Z,101295.44
2022-11-09T06:57:58.502Z,101293.88
2022-11-09T07:00:28.234Z,101300.22
2022-11-09T07:02:56.260Z,101295.44
2022-11-09T07:05:24.573Z,101293.28
2022-11-09T07:07:54.029Z,101292.75
2022-11-09T07:10:22.127Z,101299.34
2022-11-09T07:12:50.354Z,101298.44
2022-11-09T07:15:19.561Z,101299.25
2022-11-09T07:17:47.694Z,101293.34
2022-11-09T07:20:16.902Z,101296.34
2022-11-09T07:22:45.079Z,101295.97
2022-11-09T07:25:14.745Z,101300.31
2022-11-09T07:27:42.953Z,101297.94
2022-11-09T07:30:12.069Z,101297.03
2022-11-09T07:33:07.308Z,101293.06
2022-11-09T07:35:29.755Z,101294.72
2022-11-09T07:38:02.281Z,101295.31
2022-11-09T07:40:32.150Z,101293.75
2022-11-09T07:43:00.835Z,101293.44
2022-11-09T07:45:29.439Z,101291.78
2022-11-09T07:47:58.476Z,101290.00
2022-11-09T07:50:27.506Z,101291.44
2022-11-09T07:52:56.606Z,101293.03
2022-11-09T07:55:26.324Z,101295.81
2022-11-09T07:57:58.599Z,101294.50
2022-11-09T08:00:28.158Z,101293.88
2022-11-09T08:02:56.425Z,101297.56
2022-11-09T08:05:25.127Z,101301.66
2022-11-09T08:07:57.200Z,101303.50
2022-11-09T08:10:26.133Z,101311.09
2022-11-09T08:12:55.777Z,101310.53
2022-11-09T08:15:25.866Z,101319.22
2022-11-09T08:17:54.302Z,101312.63
2022-11-09T08:20:26.414Z,101314.22
2022-11-09T08:22:58.321Z,101305.03
2022-11-09T08:25:29.870Z,101310.16
2022-11-09T08:27:58.238Z,101316.72
2022-11-09T08:30:28.014Z,101312.13
2022-11-09T08:32:56.316Z,101309.94
2022-11-09T08:35:25.838Z,101307.00
2022-11-09T08:37:54.837Z,101300.75
2022-11-09T08:40:24.447Z,101307.03
2022-11-09T08:42:54.010Z,101305.97
2022-11-09T08:45:24.393Z,101310.19
2022-11-09T08:47:59.077Z,101304.41
2022-11-09T08:50:28.875Z,101306.63
2022-11-09T08:52:57.885Z,101307.44
2022-11-09T08:55:26.256Z,101314.09
2022-11-09T08:57:55.539Z,101310.91
2022-11-09T09:00:23.907Z,101316.84
2022-11-09T09:02:53.633Z,101316.38
2022-11-09T09:05:22.461Z,101307.81
2022-11-09T09:07:50.590Z,101317.25
2022-11-09T09:10:18.765Z,101309.88
2022-11-09T09:12:46.814Z,101314.09
2022-11-09T09:15:15.074Z,101310.41
2022-11-09T09:17:43.136Z,101312.44
2022-11-09T09:20:12.867Z,101325.97
2022-11-09T09:22:41.284Z,101308.47
2022-11-09T09:25:10.187Z,101315.13
2022-11-09T09:27:38.730Z,101312.63
2022-11-09T09:30:08.034Z,101310.78
2022-11-09T09:32:36.073Z,101303.19
2022-11-09T09:35:04.302Z,101302.97
2022-11-09T09:37:33.728Z,101296.34
2022-11-09T09:40:01.891Z,101299.63
2022-11-09T09:42:36.104Z,101305.88
2022-11-09T09:45:09.192Z,101302.97
2022-11-09T09:47:49.609Z,101294.50
2022-11-09T09:50:24.128Z,101300.94
2022-11-09T09:53:22.641Z,101296.78
2022-11-09T09:55:55.192Z,101286.91
2022-11-09T09:58:27.978Z,101285.56
2022-11-09T10:01:00.222Z,101290.44
2022-11-09T10:03:28.484Z,101281.22
2022-11-09T10:06:06.110Z,101281.88
2022-11-09T10:08:46.942Z,101279.78
2022-11-09T10:11:27.013Z,101275.00
2022-11-09T10:14:21.035Z,101278.66
2022-11-09T10:16:56.083Z,101289.00
2022-11-09T10:19:38.496Z,101277.94
2022-11-09T10:22:13.451Z,101280.56
2022-11-09T10:25:18.581Z,101268.09
2022-11-09T10:27:42.801Z,101262.72
2022-11-09T10:30:16.196Z,101271.97
2022-11-09T10:32:47.423Z,101262.94
2022-11-09T10:35:21.366Z,101273.28
2022-11-09T10:37:52.358Z,101261.97
2022-11-09T10:40:25.621Z,101273.44
2022-11-09T10:42:56.356Z,101262.25
2022-11-09T10:45:31.608Z,101268.44
2022-11-09T10:48:00.656Z,101261.88
2022-11-09T10:50:34.903Z,101261.50
2022-11-09T10:53:17.087Z,101257.31
2022-11-09T10:55:55.509Z,101259.00
2022-11-09T10:58:34.155Z,101257.03
2022-11-09T11:01:05.739Z,101253.97
2022-11-09T11:03:37.121Z,101249.41
2022-11-09T11:06:06.923Z,101253.94
2022-11-09T11:08:41.005Z,101258.81
2022-11-09T11:11:36.913Z,101253.03
2022-11-09T11:14:17.180Z,101250.25
2022-11-09T11:16:50.874Z,101252.25
2022-11-09T11:19:33.275Z,101244.03
2022-11-09T11:22:27.622Z,101249.69
2022-11-09T11:24:58.061Z,101245.47
2022-11-09T11:27:32.933Z,101236.28
2022-11-09T11:30:06.852Z,101247.63
2022-11-09T11:32:34.961Z,101238.00
2022-11-09T11:35:05.282Z,101236.34
2022-11-09T11:37:47.239Z,101231.84
2022-11-09T11:40:21.664Z,101229.69
2022-11-09T11:43:15.754Z,101232.91
2022-11-09T11:45:49.388Z,101241.63
2022-11-09T11:48:33.150Z,101230.97
2022-11-09T11:51:11.089Z,101246.06
2022-11-09T11:53:49.353Z,101239.41
2022-11-09T11:56:24.148Z,101245.81
2022-11-09T11:59:18.826Z,101252.88
2022-11-09T12:02:04.512Z,101251.00
2022-11-09T12:04:47.770Z,101246.19
2022-11-09T12:07:39.981Z,101243.19
2022-11-09T12:10:21.104Z,101239.19
2022-11-09T12:13:00.423Z,101241.38
2022-11-09T12:15:44.655Z,101242.34
2022-11-09T12:18:26.370Z,101245.56
2022-11-09T12:20:59.847Z,101250.19
2022-11-09T12:23:46.367Z,101241.38
2022-11-09T12:26:24.178Z,101249.22
2022-11-09T12:29:07.090Z,101246.47
2022-11-09T12:31:49.658Z,101242.56
2022-11-09T12:34:24.982Z,101242.75
2022-11-09T12:36:55.854Z,101237.19
2022-11-09T12:39:28.871Z,101233.56
2022-11-09T12:42:05.868Z,101240.22
2022-11-09T12:44:38.530Z,101243.81
2022-11-09T12:47:15.595Z,101236.03
2022-11-09T12:49:45.802Z,101245.28
2022-11-09T12:52:19.491Z,101241.72
2022-11-09T12:54:51.075Z,101239.72
2022-11-09T12:57:25.228Z,101241.94
2022-11-09T12:59:54.972Z,101243.50
2022-11-09T13:02:31.281Z,101241.16
2022-11-09T13:05:01.167Z,101245.06
2022-11-09T13:07:33.355Z,101246.94
2022-11-09T13:10:03.555Z,101239.72
2022-11-09T13:12:36.114Z,101248.59
2022-11-09T13:15:24.696Z,101238.28
2022-11-09T13:18:00.987Z,101246.69
2022-11-09T13:20:57.407Z,101244.34
2022-11-09T13:24:01.613Z,101246.81
2022-11-09T13:26:55.860Z,101248.44
2022-11-09T13:29:26.575Z,101250.53
2022-11-09T13:32:25.823Z,101249.19
2022-11-09T13:34:56.440Z,101252.38
2022-11-09T13:37:58.588Z,101242.91
2022-11-09T13:40:48.514Z,101249.25
2022-11-09T13:43:28.208Z,101247.13
2022-11-09T13:45:58.651Z,101254.16
2022-11-09T13:48:41.173Z,101251.38
2022-11-09T13:51:14.232Z,101244.50
2022-11-09T13:53:59.890Z,101247.13
2022-11-09T13:56:37.640Z,101246.69
2022-11-09T13:59:14.448Z,101235.28
2022-11-09T14:01:48.679Z,101236.25
2022-11-09T14:04:24.712Z,101241.63
2022-11-09T14:07:03.955Z,101239.25
2022-11-09T14:09:40.128Z,101242.13
2022-11-09T14:12:24.839Z,101244.91
2022-11-09T14:15:15.496Z,101235.06
2022-11-09T14:17:55.131Z,101241.47
2022-11-09T14:20:40.071Z,101240.56
2022-11-09T14:23:18.626Z,101239.47
2022-11-09T14:25:47.154Z,101241.75
2022-11-09T14:28:24.488Z,101230.78
2022-11-09T14:30:52.526Z,101237.44
2022-11-09T14:33:25.114Z,101234.84
2022-11-09T14:35:55.027Z,101235.34
2022-11-09T14:38:27.279Z,101232.44
2022-11-09T14:40:56.221Z,101230.19
2022-11-09T14:43:28.773Z,101229.19
2022-11-09T14:45:59.479Z,101232.03
2022-11-09T14:48:29.327Z,101237.81
2022-11-09T14:51:00.728Z,101234.63
2022-11-09T14:53:32.579Z,101238.47
2022-11-09T14:56:05.352Z,101239.56
2022-11-09T14:58:36.214Z,101234.84
2022-11-09T15:01:08.818Z,101237.91
2022-11-09T15:03:36.974Z,101232.09
2022-11-09T15:06:07.635Z,101243.50
2022-11-09T15:08:40.345Z,101244.88
2022-11-09T15:11:09.203Z,101248.13
2022-11-09T15:13:40.112Z,101246.81
2022-11-09T15:16:09.300Z,101249.09
2022-11-09T15:18:43.293Z,101243.78
2022-11-09T15:21:13.172Z,101252.19
2022-11-09T15:23:44.578Z,101249.81
2022-11-09T15:26:36.724Z,101250.09
2022-11-09T15:29:36.573Z,101260.09
2022-11-09T15:32:15.440Z,101256.81
2022-11-09T15:34:53.714Z,101245.50
2022-11-09T15:37:24.935Z,101258.56
2022-11-09T15:39:54.580Z,101257.44
2022-11-09T15:42:24.317Z,101258.28
2022-11-09T15:44:54.198Z,101262.66
2022-11-09T15:47:28.400Z,101253.94
2022-11-09T15:49:56.479Z,101257.63
2022-11-09T15:52:24.771Z,101256.63
2022-11-09T15:54:54.230Z,101253.75
2022-11-09T15:57:22.808Z,101256.16
2022-11-09T15:59:52.287Z,101259.97
2022-11-09T16:02:20.455Z,101260.47
2022-11-09T16:04:48.487Z,101259.00
2022-11-09T16:07:17.630Z,101260.88
2022-11-09T16:09:45.749Z,101259.25
2022-11-09T16:12:15.462Z,101259.25
2022-11-09T16:14:43.579Z,101261.75
2022-11-09T16:17:11.643Z,101260.28
2022-11-09T16:19:42.644Z,101261.75
2022-11-09T16:22:12.009Z,101263.16
2022-11-09T16:24:40.521Z,101267.38
2022-11-09T16:27:17.198Z,101272.31
2022-11-09T16:29:52.092Z,101276.19
2022-11-09T16:32:21.313Z,101269.19
2022-11-09T16:35:08.405Z,101278.31
2022-11-09T16:37:40.108Z,101270.25
2022-11-09T16:40:11.891Z,101276.13
2022-11-09T16:42:41.204Z,101282.38
2022-11-09T16:45:14.638Z,101277.13
2022-11-09T16:47:45.341Z,101279.84
2022-11-09T16:50:13.615Z,101287.13
2022-11-09T16:52:41.923Z,101288.81
2022-11-09T16:55:10.820Z,101282.13
2022-11-09T16:57:39.045Z,101285.16
2022-11-09T17:00:08.461Z,101283.72
2022-11-09T17:02:37.945Z,101278.25
2022-11-09T17:05:07.007Z,101277.16
2022-11-09T17:07:42.211Z,101284.16
2022-11-09T17:10:11.743Z,101273.16
2022-11-09T17:12:40.037Z,101268.44
2022-11-09T17:15:09.511Z,101273.34
2022-11-09T17:17:38.955Z,101275.22
2022-11-09T17:20:08.398Z,101267.38
2022-11-09T17:22:39.217Z,101284.53
2022-11-09T17:25:10.312Z,101275.50
2022-11-09T17:27:38.899Z,101278.19
2022-11-09T17:30:08.913Z,101280.81
2022-11-09T17:32:38.624Z,101280.38
2022-11-09T17:35:07.115Z,101276.88
2022-11-09T17:37:35.227Z,101289.50
2022-11-09T17:40:04.891Z,101283.63
2022-11-09T17:42:35.542Z,101295.94
2022-11-09T17:45:03.702Z,101286.06
2022-11-09T17:47:32.618Z,101285.59
2022-11-09T17:50:02.188Z,101284.59
2022-11-09T17:52:30.275Z,101285.66
2022-11-09T17:54:58.318Z,101278.19
2022-11-09T17:57:26.579Z,101282.47
2022-11-09T17:59:54.649Z,101284.31
2022-11-09T18:02:22.810Z,101283.03
2022-11-09T18:04:50.901Z,101285.97
2022-11-09T18:07:20.920Z,101286.72
2022-11-09T18:09:49.008Z,101283.53
2022-11-09T18:12:17.137Z,101280.50
2022-11-09T18:14:45.327Z,101286.16
2022-11-09T18:17:13.639Z,101281.94
2022-11-09T18:19:41.739Z,101281.88
2022-11-09T18:22:12.729Z,101283.78
2022-11-09T18:24:42.763Z,101281.66
2022-11-09T18:27:11.079Z,101290.72
2022-11-09T18:29:39.203Z,101288.63
2022-11-09T18:32:07.439Z,101289.13
2022-11-09T18:34:36.979Z,101292.69
2022-11-09T18:37:05.250Z,101289.78
2022-11-09T18:39:33.290Z,101288.22
2022-11-09T18:42:02.876Z,101293.56
2022-11-09T18:44:31.053Z,101286.06
2022-11-09T18:47:04.814Z,101283.69
2022-11-09T18:49:34.685Z,101285.03
2022-11-09T18:52:02.983Z,101283.50
2022-11-09T18:54:32.466Z,101292.09
2022-11-09T18:57:00.631Z,101293.69
2022-11-09T18:59:30.082Z,101282.41
2022-11-09T19:01:58.310Z,101283.47
2022-11-09T19:04:26.408Z,101286.75
2022-11-09T19:06:55.515Z,101277.41
2022-11-09T19:09:35.531Z,101288.91
2022-11-09T19:12:08.124Z,101284.84
2022-11-09T19:14:41.076Z,101287.84
2022-11-09T19:17:12.118Z,101282.53
2022-11-09T19:19:40.591Z,101282.88
2022-11-09T19:22:17.087Z,101288.00
2022-11-09T19:24:45.510Z,101287.25
2022-11-09T19:27:14.200Z,101288.06
2022-11-09T19:29:43.786Z,101289.66
2022-11-09T19:32:11.910Z,101293.13
2022-11-09T19:34:42.759Z,101293.13
2022-11-09T19:37:11.165Z,101292.56
2022-11-09T19:39:43.143Z,101299.22
2022-11-09T19:42:11.675Z,101294.88
2022-11-09T19:44:39.776Z,101295.41
2022-11-09T19:47:09.289Z,101298.88
2022-11-09T19:49:37.423Z,101292.44
2022-11-09T19:52:05.808Z,101299.69
2022-11-09T19:54:34.375Z,101296.75
2022-11-09T19:57:02.430Z,101289.00
2022-11-09T19:59:30.706Z,101294.84
2022-11-09T20:01:58.829Z,101300.72
2022-11-09T20:04:28.661Z,101304.19
2022-11-09T20:06:56.797Z,101300.69
2022-11-09T20:09:24.954Z,101300.94
2022-11-09T20:12:10.567Z,101301.50
2022-11-09T20:14:38.634Z,101303.63
2022-11-09T20:17:06.851Z,101300.13
2022-11-09T20:19:36.300Z,101301.22
2022-11-09T20:22:04.809Z,101297.69
2022-11-09T20:24:32.863Z,101301.19
2022-11-09T20:27:00.999Z,101299.53
2022-11-09T20:29:29.060Z,101297.75
2022-11-09T20:31:57.227Z,101298.88
2022-11-09T20:34:29.680Z,101291.72
2022-11-09T20:36:59.153Z,101292.00
2022-11-09T20:39:27.376Z,101288.53
2022-11-09T20:41:55.539Z,101292.84
2022-11-09T20:44:23.629Z,101291.47
2022-11-09T20:46:51.701Z,101289.06
2022-11-09T20:49:20.374Z,101289.06
2022-11-09T20:51:48.445Z,101286.69
2022-11-09T20:54:17.923Z,101277.03
2022-11-09T20:56:46.543Z,101284.53
2022-11-09T20:59:14.819Z,101281.03
2022-11-09T21:01:43.213Z,101279.69
2022-11-09T21:04:11.280Z,101276.22
2022-11-09T21:06:39.561Z,101274.59
2022-11-09T21:09:07.851Z,101278.13
2022-11-09T21:11:57.379Z,101276.53
2022-11-09T21:14:25.444Z,101273.59
2022-11-09T21:16:53.515Z,101268.50
2022-11-09T21:19:21.750Z,101268.25
2022-11-09T21:21:49.816Z,101276.22
2022-11-09T21:24:35.291Z,101274.81
2022-11-09T21:27:22.257Z,101276.19
2022-11-09T21:29:53.404Z,101276.19
2022-11-09T21:32:22.654Z,101270.63
2022-11-09T21:34:52.409Z,101271.72
2022-11-09T21:37:20.673Z,101276.03
2022-11-09T21:39:48.819Z,101270.13
2022-11-09T21:42:18.351Z,101264.53
2022-11-09T21:44:46.435Z,101259.19
2022-11-09T21:47:14.658Z,101267.19
2022-11-09T21:49:42.799Z,101275.19
2022-11-09T21:52:10.927Z,101264.19
2022-11-09T21:54:39.180Z,101271.09
2022-11-09T21:57:07.276Z,101273.44
2022-11-09T21:59:36.771Z,101275.06
2022-11-09T22:02:04.877Z,101272.75
2022-11-09T22:04:33.092Z,101273.53
2022-11-09T22:07:01.269Z,101271.09
2022-11-09T22:09:35.782Z,101271.41
2022-11-09T22:12:31.312Z,101277.34
2022-11-09T22:15:18.165Z,101277.91
2022-11-09T22:17:46.250Z,101275.75
2022-11-09T22:20:31.840Z,101273.09
2022-11-09T22:22:59.959Z,101273.84
2022-11-09T22:25:28.052Z,101274.66
2022-11-09T22:27:57.316Z,101276.28
2022-11-09T22:30:27.014Z,101273.91
2022-11-09T22:32:57.438Z,101266.16
2022-11-09T22:35:25.674Z,101262.41
2022-11-09T22:37:53.820Z,101270.16
2022-11-09T22:40:48.177Z,101270.41
2022-11-09T22:43:16.304Z,101268.00
2022-11-09T22:45:45.950Z,101262.41
2022-11-09T22:48:14.067Z,101263.44
2022-11-09T22:50:42.246Z,101264.50
2022-11-09T22:53:10.309Z,101269.06
2022-11-09T22:59:39.920Z,101266.69
2022-11-09T23:02:09.430Z,101260.56
2022-11-09T23:04:37.554Z,101264.28
2022-11-09T23:07:05.687Z,101265.28
2022-11-09T23:09:33.858Z,101266.69
2022-11-09T23:12:02.127Z,101267.19
2022-11-09T23:14:47.814Z,101262.88
2022-11-09T23:17:31.139Z,101257.31
2022-11-09T23:19:59.241Z,101258.56
2022-11-09T23:22:27.540Z,101259.72
2022-11-09T23:25:13.192Z,101256.78
2022-11-09T23:27:41.492Z,101260.25
2022-11-09T23:30:49.054Z,101265.31
2022-11-09T23:44:06.845Z,101265.84
2022-11-09T23:46:35.327Z,101259.50
2022-11-09T23:49:03.659Z,101264.81
2022-11-09T23:51:32.358Z,101256.00
2022-11-09T23:54:01.912Z,101264.78
2022-11-09T23:56:31.178Z,101259.72
2022-11-09T23:58:59.304Z,101264.53
